sensor_id;sensor_type;location;lat;lon;timestamp;P1;durP1;ratioP1;P2;durP2;ratioP2
23384;SDS011;11865;45.394;10.978;2022-10-17T00:00:03;96.03;;;47.35;;
23384;SDS011;11865;45.394;10.978;2022-10-17T00:02:31;97.88;;;49.28;;
23384;SDS011;11865;45.394;10.978;2022-10-17T00:04:59;99.65;;;50.45;;
23384;SDS011;11865;45.394;10.978;2022-10-17T00:07:26;90.47;;;48.60;;
23384;SDS011;11865;45.394;10.978;2022-10-17T00:09:54;95.15;;;48.47;;
23384;SDS011;11865;45.394;10.978;2022-10-17T00:12:21;82.22;;;42.28;;
23384;SDS011;11865;45.394;10.978;2022-10-17T00:14:49;88.22;;;45.75;;
23384;SDS011;11865;45.394;10.978;2022-10-17T00:17:16;77.80;;;41.72;;
23384;SDS011;11865;45.394;10.978;2022-10-17T00:19:44;74.20;;;39.75;;
23384;SDS011;11865;45.394;10.978;2022-10-17T00:22:11;73.32;;;39.95;;
23384;SDS011;11865;45.394;10.978;2022-10-17T00:24:39;77.25;;;40.42;;
23384;SDS011;11865;45.394;10.978;2022-10-17T00:27:06;71.55;;;39.67;;
23384;SDS011;11865;45.394;10.978;2022-10-17T00:29:34;75.22;;;40.70;;
23384;SDS011;11865;45.394;10.978;2022-10-17T00:32:02;77.90;;;41.28;;
23384;SDS011;11865;45.394;10.978;2022-10-17T00:34:29;84.05;;;43.85;;
23384;SDS011;11865;45.394;10.978;2022-10-17T00:36:57;81.45;;;42.42;;
23384;SDS011;11865;45.394;10.978;2022-10-17T00:39:24;82.60;;;43.70;;
23384;SDS011;11865;45.394;10.978;2022-10-17T00:41:52;74.10;;;40.92;;
23384;SDS011;11865;45.394;10.978;2022-10-17T00:49:25;85.15;;;43.15;;
23384;SDS011;11865;45.394;10.978;2022-10-17T00:51:57;79.93;;;42.63;;
23384;SDS011;11865;45.394;10.978;2022-10-17T00:54:30;98.68;;;46.47;;
23384;SDS011;11865;45.394;10.978;2022-10-17T00:59:28;83.95;;;42.03;;
23384;SDS011;11865;45.394;10.978;2022-10-17T01:02:04;78.55;;;41.72;;
23384;SDS011;11865;45.394;10.978;2022-10-17T01:04:37;87.63;;;43.33;;
23384;SDS011;11865;45.394;10.978;2022-10-17T01:07:07;89.88;;;43.47;;
23384;SDS011;11865;45.394;10.978;2022-10-17T01:09:35;78.85;;;42.58;;
23384;SDS011;11865;45.394;10.978;2022-10-17T01:12:10;87.85;;;43.65;;
23384;SDS011;11865;45.394;10.978;2022-10-17T01:20:53;88.60;;;43.72;;
23384;SDS011;11865;45.394;10.978;2022-10-17T01:29:31;75.05;;;40.63;;
23384;SDS011;11865;45.394;10.978;2022-10-17T01:32:17;76.40;;;41.47;;
23384;SDS011;11865;45.394;10.978;2022-10-17T01:35:01;80.43;;;39.97;;
23384;SDS011;11865;45.394;10.978;2022-10-17T01:40:48;82.60;;;43.30;;
23384;SDS011;11865;45.394;10.978;2022-10-17T01:45:52;77.57;;;41.97;;
23384;SDS011;11865;45.394;10.978;2022-10-17T01:48:27;101.45;;;50.97;;
23384;SDS011;11865;45.394;10.978;2022-10-17T01:53:52;91.43;;;46.38;;
23384;SDS011;11865;45.394;10.978;2022-10-17T01:56:29;100.47;;;49.53;;
23384;SDS011;11865;45.394;10.978;2022-10-17T01:59:03;109.38;;;51.67;;
23384;SDS011;11865;45.394;10.978;2022-10-17T02:01:37;101.50;;;50.90;;
23384;SDS011;11865;45.394;10.978;2022-10-17T02:04:07;96.05;;;48.45;;
23384;SDS011;11865;45.394;10.978;2022-10-17T02:06:36;94.18;;;46.25;;
23384;SDS011;11865;45.394;10.978;2022-10-17T02:09:22;93.13;;;50.13;;
23384;SDS011;11865;45.394;10.978;2022-10-17T02:14:44;98.43;;;49.17;;
23384;SDS011;11865;45.394;10.978;2022-10-17T02:20:09;96.28;;;49.60;;
23384;SDS011;11865;45.394;10.978;2022-10-17T02:29:11;99.13;;;48.55;;
23384;SDS011;11865;45.394;10.978;2022-10-17T02:31:58;99.97;;;49.17;;
23384;SDS011;11865;45.394;10.978;2022-10-17T02:34:39;102.50;;;49.83;;
23384;SDS011;11865;45.394;10.978;2022-10-17T02:37:09;103.85;;;49.80;;
23384;SDS011;11865;45.394;10.978;2022-10-17T02:39:39;96.30;;;49.50;;
23384;SDS011;11865;45.394;10.978;2022-10-17T02:42:10;91.50;;;46.65;;
23384;SDS011;11865;45.394;10.978;2022-10-17T02:44:40;98.78;;;48.63;;
23384;SDS011;11865;45.394;10.978;2022-10-17T02:47:19;97.28;;;49.95;;
23384;SDS011;11865;45.394;10.978;2022-10-17T02:49:51;104.53;;;50.63;;
23384;SDS011;11865;45.394;10.978;2022-10-17T02:52:23;82.57;;;42.20;;
23384;SDS011;11865;45.394;10.978;2022-10-17T02:55:16;76.03;;;41.90;;
23384;SDS011;11865;45.394;10.978;2022-10-17T02:57:48;81.72;;;42.15;;
23384;SDS011;11865;45.394;10.978;2022-10-17T03:00:26;96.05;;;45.85;;
23384;SDS011;11865;45.394;10.978;2022-10-17T03:02:55;105.00;;;51.35;;
23384;SDS011;11865;45.394;10.978;2022-10-17T03:05:27;109.57;;;52.60;;
23384;SDS011;11865;45.394;10.978;2022-10-17T03:07:55;111.20;;;53.95;;
23384;SDS011;11865;45.394;10.978;2022-10-17T03:10:23;98.60;;;51.00;;
23384;SDS011;11865;45.394;10.978;2022-10-17T03:12:51;94.88;;;46.80;;
23384;SDS011;11865;45.394;10.978;2022-10-17T03:15:19;102.55;;;49.65;;
23384;SDS011;11865;45.394;10.978;2022-10-17T03:17:47;99.22;;;50.13;;
23384;SDS011;11865;45.394;10.978;2022-10-17T03:20:15;96.10;;;50.17;;
23384;SDS011;11865;45.394;10.978;2022-10-17T03:22:44;105.03;;;51.08;;
23384;SDS011;11865;45.394;10.978;2022-10-17T03:25:11;95.57;;;49.08;;
23384;SDS011;11865;45.394;10.978;2022-10-17T03:27:39;78.50;;;41.78;;
23384;SDS011;11865;45.394;10.978;2022-10-17T03:30:07;75.30;;;40.60;;
23384;SDS011;11865;45.394;10.978;2022-10-17T03:32:35;78.65;;;40.28;;
23384;SDS011;11865;45.394;10.978;2022-10-17T03:35:03;78.25;;;39.55;;
23384;SDS011;11865;45.394;10.978;2022-10-17T03:37:31;78.60;;;40.83;;
23384;SDS011;11865;45.394;10.978;2022-10-17T03:39:58;75.97;;;41.17;;
23384;SDS011;11865;45.394;10.978;2022-10-17T03:42:26;89.50;;;43.92;;
23384;SDS011;11865;45.394;10.978;2022-10-17T03:44:53;96.65;;;48.53;;
23384;SDS011;11865;45.394;10.978;2022-10-17T03:47:21;101.05;;;50.80;;
23384;SDS011;11865;45.394;10.978;2022-10-17T03:49:49;106.10;;;52.67;;
23384;SDS011;11865;45.394;10.978;2022-10-17T03:52:20;111.93;;;54.45;;
23384;SDS011;11865;45.394;10.978;2022-10-17T03:54:48;106.95;;;52.08;;
23384;SDS011;11865;45.394;10.978;2022-10-17T03:57:17;92.13;;;45.38;;
23384;SDS011;11865;45.394;10.978;2022-10-17T03:59:46;96.68;;;48.35;;
23384;SDS011;11865;45.394;10.978;2022-10-17T04:02:16;96.30;;;48.47;;
23384;SDS011;11865;45.394;10.978;2022-10-17T04:04:44;92.60;;;48.30;;
23384;SDS011;11865;45.394;10.978;2022-10-17T04:07:12;99.85;;;49.35;;
23384;SDS011;11865;45.394;10.978;2022-10-17T04:09:42;109.40;;;49.63;;
23384;SDS011;11865;45.394;10.978;2022-10-17T04:12:13;94.93;;;47.53;;
23384;SDS011;11865;45.394;10.978;2022-10-17T04:14:41;100.97;;;48.97;;
23384;SDS011;11865;45.394;10.978;2022-10-17T04:17:08;104.63;;;50.00;;
23384;SDS011;11865;45.394;10.978;2022-10-17T04:19:37;95.90;;;48.13;;
23384;SDS011;11865;45.394;10.978;2022-10-17T04:22:05;95.20;;;47.15;;
23384;SDS011;11865;45.394;10.978;2022-10-17T04:24:36;96.47;;;48.95;;
23384;SDS011;11865;45.394;10.978;2022-10-17T04:27:07;94.85;;;47.80;;
23384;SDS011;11865;45.394;10.978;2022-10-17T04:29:38;98.15;;;50.20;;
23384;SDS011;11865;45.394;10.978;2022-10-17T04:32:16;87.05;;;46.25;;
23384;SDS011;11865;45.394;10.978;2022-10-17T04:34:50;96.57;;;46.88;;
23384;SDS011;11865;45.394;10.978;2022-10-17T04:37:20;95.28;;;47.55;;
23384;SDS011;11865;45.394;10.978;2022-10-17T04:39:50;95.10;;;48.63;;
23384;SDS011;11865;45.394;10.978;2022-10-17T04:42:17;105.93;;;49.35;;
23384;SDS011;11865;45.394;10.978;2022-10-17T04:44:45;97.25;;;46.90;;
23384;SDS011;11865;45.394;10.978;2022-10-17T04:47:15;93.10;;;47.78;;
23384;SDS011;11865;45.394;10.978;2022-10-17T04:49:43;99.57;;;48.50;;
23384;SDS011;11865;45.394;10.978;2022-10-17T04:52:12;101.43;;;49.08;;
23384;SDS011;11865;45.394;10.978;2022-10-17T04:54:44;99.10;;;50.20;;
23384;SDS011;11865;45.394;10.978;2022-10-17T04:57:13;110.70;;;49.70;;
23384;SDS011;11865;45.394;10.978;2022-10-17T04:59:47;104.13;;;50.33;;
23384;SDS011;11865;45.394;10.978;2022-10-17T05:02:25;111.20;;;51.88;;
23384;SDS011;11865;45.394;10.978;2022-10-17T05:04:52;109.55;;;50.58;;
23384;SDS011;11865;45.394;10.978;2022-10-17T05:07:20;102.65;;;49.88;;
23384;SDS011;11865;45.394;10.978;2022-10-17T05:10:14;101.43;;;48.95;;
23384;SDS011;11865;45.394;10.978;2022-10-17T05:12:45;91.75;;;47.60;;
23384;SDS011;11865;45.394;10.978;2022-10-17T05:15:18;103.43;;;49.80;;
23384;SDS011;11865;45.394;10.978;2022-10-17T05:17:45;102.07;;;49.97;;
23384;SDS011;11865;45.394;10.978;2022-10-17T05:20:13;87.63;;;45.08;;
23384;SDS011;11865;45.394;10.978;2022-10-17T05:22:40;84.65;;;42.85;;
23384;SDS011;11865;45.394;10.978;2022-10-17T05:25:10;72.72;;;39.45;;
23384;SDS011;11865;45.394;10.978;2022-10-17T05:27:37;75.03;;;39.65;;
23384;SDS011;11865;45.394;10.978;2022-10-17T05:30:05;79.35;;;41.67;;
23384;SDS011;11865;45.394;10.978;2022-10-17T05:32:35;76.10;;;39.70;;
23384;SDS011;11865;45.394;10.978;2022-10-17T05:35:03;81.35;;;42.38;;
23384;SDS011;11865;45.394;10.978;2022-10-17T05:37:31;79.90;;;42.70;;
23384;SDS011;11865;45.394;10.978;2022-10-17T05:40:01;85.78;;;43.38;;
23384;SDS011;11865;45.394;10.978;2022-10-17T05:42:29;86.93;;;41.85;;
23384;SDS011;11865;45.394;10.978;2022-10-17T05:44:57;76.78;;;40.35;;
23384;SDS011;11865;45.394;10.978;2022-10-17T05:47:25;92.43;;;44.42;;
23384;SDS011;11865;45.394;10.978;2022-10-17T05:49:53;95.45;;;44.97;;
23384;SDS011;11865;45.394;10.978;2022-10-17T05:52:27;88.10;;;44.75;;
23384;SDS011;11865;45.394;10.978;2022-10-17T05:55:06;84.97;;;41.53;;
23384;SDS011;11865;45.394;10.978;2022-10-17T05:57:33;80.35;;;41.90;;
23384;SDS011;11865;45.394;10.978;2022-10-17T06:00:04;101.60;;;46.28;;
23384;SDS011;11865;45.394;10.978;2022-10-17T06:02:42;96.32;;;45.88;;
23384;SDS011;11865;45.394;10.978;2022-10-17T06:05:13;97.20;;;45.60;;
23384;SDS011;11865;45.394;10.978;2022-10-17T06:07:42;110.28;;;48.40;;
23384;SDS011;11865;45.394;10.978;2022-10-17T06:10:11;130.60;;;51.15;;
23384;SDS011;11865;45.394;10.978;2022-10-17T06:12:42;122.60;;;51.67;;
23384;SDS011;11865;45.394;10.978;2022-10-17T06:15:12;112.53;;;51.42;;
23384;SDS011;11865;45.394;10.978;2022-10-17T06:17:46;98.90;;;46.05;;
23384;SDS011;11865;45.394;10.978;2022-10-17T06:20:15;102.25;;;45.75;;
23384;SDS011;11865;45.394;10.978;2022-10-17T06:22:43;97.65;;;44.88;;
23384;SDS011;11865;45.394;10.978;2022-10-17T06:25:17;100.10;;;46.47;;
23384;SDS011;11865;45.394;10.978;2022-10-17T06:27:44;108.22;;;50.55;;
23384;SDS011;11865;45.394;10.978;2022-10-17T06:30:12;100.32;;;48.38;;
23384;SDS011;11865;45.394;10.978;2022-10-17T06:32:40;100.90;;;46.67;;
23384;SDS011;11865;45.394;10.978;2022-10-17T06:35:07;108.80;;;47.38;;
23384;SDS011;11865;45.394;10.978;2022-10-17T06:37:35;113.70;;;48.92;;
23384;SDS011;11865;45.394;10.978;2022-10-17T06:40:07;102.53;;;50.27;;
23384;SDS011;11865;45.394;10.978;2022-10-17T06:42:37;114.40;;;49.22;;
23384;SDS011;11865;45.394;10.978;2022-10-17T06:45:25;113.95;;;51.00;;
23384;SDS011;11865;45.394;10.978;2022-10-17T06:48:12;105.90;;;51.70;;
23384;SDS011;11865;45.394;10.978;2022-10-17T06:50:42;106.60;;;51.45;;
23384;SDS011;11865;45.394;10.978;2022-10-17T06:53:19;102.15;;;51.10;;
23384;SDS011;11865;45.394;10.978;2022-10-17T06:55:52;103.20;;;50.50;;
23384;SDS011;11865;45.394;10.978;2022-10-17T06:58:39;101.60;;;49.97;;
23384;SDS011;11865;45.394;10.978;2022-10-17T07:01:14;101.05;;;51.35;;
23384;SDS011;11865;45.394;10.978;2022-10-17T07:03:45;98.93;;;50.90;;
23384;SDS011;11865;45.394;10.978;2022-10-17T07:06:14;96.38;;;48.70;;
23384;SDS011;11865;45.394;10.978;2022-10-17T07:08:42;105.00;;;51.10;;
23384;SDS011;11865;45.394;10.978;2022-10-17T07:11:18;104.23;;;50.83;;
23384;SDS011;11865;45.394;10.978;2022-10-17T07:13:48;104.07;;;50.92;;
23384;SDS011;11865;45.394;10.978;2022-10-17T07:16:16;109.05;;;50.95;;
23384;SDS011;11865;45.394;10.978;2022-10-17T07:18:49;101.75;;;49.88;;
23384;SDS011;11865;45.394;10.978;2022-10-17T07:21:17;96.32;;;49.80;;
23384;SDS011;11865;45.394;10.978;2022-10-17T07:23:45;100.13;;;50.92;;
23384;SDS011;11865;45.394;10.978;2022-10-17T07:26:14;93.93;;;48.65;;
23384;SDS011;11865;45.394;10.978;2022-10-17T07:28:43;105.90;;;52.00;;
23384;SDS011;11865;45.394;10.978;2022-10-17T07:31:42;94.22;;;48.42;;
23384;SDS011;11865;45.394;10.978;2022-10-17T07:34:11;90.82;;;48.10;;
23384;SDS011;11865;45.394;10.978;2022-10-17T07:36:39;96.68;;;48.38;;
23384;SDS011;11865;45.394;10.978;2022-10-17T07:39:07;92.68;;;46.60;;
23384;SDS011;11865;45.394;10.978;2022-10-17T07:41:36;91.43;;;47.90;;
23384;SDS011;11865;45.394;10.978;2022-10-17T07:44:05;91.85;;;47.25;;
23384;SDS011;11865;45.394;10.978;2022-10-17T07:46:38;87.65;;;46.40;;
23384;SDS011;11865;45.394;10.978;2022-10-17T07:49:06;85.85;;;44.30;;
23384;SDS011;11865;45.394;10.978;2022-10-17T07:51:33;86.10;;;45.78;;
23384;SDS011;11865;45.394;10.978;2022-10-17T07:54:01;80.78;;;45.22;;
23384;SDS011;11865;45.394;10.978;2022-10-17T07:56:31;91.50;;;47.20;;
23384;SDS011;11865;45.394;10.978;2022-10-17T07:58:59;83.55;;;45.05;;
23384;SDS011;11865;45.394;10.978;2022-10-17T08:01:32;86.47;;;45.10;;
23384;SDS011;11865;45.394;10.978;2022-10-17T08:04:00;84.80;;;45.40;;
23384;SDS011;11865;45.394;10.978;2022-10-17T08:06:27;89.35;;;47.25;;
23384;SDS011;11865;45.394;10.978;2022-10-17T08:08:54;85.60;;;45.63;;
23384;SDS011;11865;45.394;10.978;2022-10-17T08:11:23;83.75;;;44.47;;
23384;SDS011;11865;45.394;10.978;2022-10-17T08:13:51;87.85;;;46.38;;
23384;SDS011;11865;45.394;10.978;2022-10-17T08:16:18;85.07;;;46.40;;
23384;SDS011;11865;45.394;10.978;2022-10-17T08:18:46;88.53;;;46.22;;
23384;SDS011;11865;45.394;10.978;2022-10-17T08:21:13;99.68;;;46.28;;
23384;SDS011;11865;45.394;10.978;2022-10-17T08:23:41;88.57;;;45.80;;
23384;SDS011;11865;45.394;10.978;2022-10-17T08:26:08;94.57;;;47.25;;
23384;SDS011;11865;45.394;10.978;2022-10-17T08:28:39;88.57;;;48.10;;
23384;SDS011;11865;45.394;10.978;2022-10-17T08:31:25;84.85;;;45.15;;
23384;SDS011;11865;45.394;10.978;2022-10-17T08:33:53;92.57;;;48.35;;
23384;SDS011;11865;45.394;10.978;2022-10-17T08:36:20;94.10;;;47.70;;
23384;SDS011;11865;45.394;10.978;2022-10-17T08:38:48;87.35;;;48.22;;
23384;SDS011;11865;45.394;10.978;2022-10-17T08:47:08;87.97;;;46.55;;
23384;SDS011;11865;45.394;10.978;2022-10-17T08:49:42;86.65;;;48.20;;
23384;SDS011;11865;45.394;10.978;2022-10-17T08:54:55;85.05;;;46.17;;
23384;SDS011;11865;45.394;10.978;2022-10-17T08:57:22;82.50;;;46.97;;
23384;SDS011;11865;45.394;10.978;2022-10-17T08:59:50;87.45;;;47.72;;
23384;SDS011;11865;45.394;10.978;2022-10-17T09:02:34;90.05;;;48.72;;
23384;SDS011;11865;45.394;10.978;2022-10-17T09:18:37;98.30;;;52.53;;
23384;SDS011;11865;45.394;10.978;2022-10-17T09:21:16;100.88;;;52.65;;
23384;SDS011;11865;45.394;10.978;2022-10-17T09:23:56;97.20;;;51.00;;
23384;SDS011;11865;45.394;10.978;2022-10-17T09:26:36;94.82;;;50.28;;
23384;SDS011;11865;45.394;10.978;2022-10-17T09:29:11;98.82;;;51.08;;
23384;SDS011;11865;45.394;10.978;2022-10-17T09:31:57;95.28;;;50.58;;
23384;SDS011;11865;45.394;10.978;2022-10-17T09:34:28;92.05;;;49.42;;
23384;SDS011;11865;45.394;10.978;2022-10-17T09:36:58;91.85;;;47.97;;
23384;SDS011;11865;45.394;10.978;2022-10-17T09:39:27;94.85;;;50.70;;
23384;SDS011;11865;45.394;10.978;2022-10-17T09:41:59;96.80;;;49.78;;
23384;SDS011;11865;45.394;10.978;2022-10-17T09:44:34;91.32;;;48.75;;
23384;SDS011;11865;45.394;10.978;2022-10-17T09:47:14;98.68;;;51.20;;
23384;SDS011;11865;45.394;10.978;2022-10-17T09:49:49;87.88;;;49.50;;
23384;SDS011;11865;45.394;10.978;2022-10-17T09:58:04;100.10;;;51.92;;
23384;SDS011;11865;45.394;10.978;2022-10-17T10:00:38;93.63;;;50.67;;
23384;SDS011;11865;45.394;10.978;2022-10-17T10:03:12;90.82;;;51.28;;
23384;SDS011;11865;45.394;10.978;2022-10-17T10:06:00;90.68;;;50.63;;
23384;SDS011;11865;45.394;10.978;2022-10-17T10:08:53;92.95;;;50.45;;
23384;SDS011;11865;45.394;10.978;2022-10-17T10:11:25;93.85;;;49.78;;
23384;SDS011;11865;45.394;10.978;2022-10-17T10:17:02;86.97;;;48.25;;
23384;SDS011;11865;45.394;10.978;2022-10-17T10:19:33;90.57;;;50.10;;
23384;SDS011;11865;45.394;10.978;2022-10-17T10:24:40;89.13;;;48.97;;
23384;SDS011;11865;45.394;10.978;2022-10-17T10:27:12;97.40;;;49.92;;
23384;SDS011;11865;45.394;10.978;2022-10-17T10:29:42;92.22;;;49.95;;
23384;SDS011;11865;45.394;10.978;2022-10-17T10:34:53;89.28;;;48.90;;
23384;SDS011;11865;45.394;10.978;2022-10-17T10:39:54;77.57;;;42.53;;
23384;SDS011;11865;45.394;10.978;2022-10-17T10:42:33;78.53;;;43.20;;
23384;SDS011;11865;45.394;10.978;2022-10-17T10:48:03;82.68;;;43.40;;
23384;SDS011;11865;45.394;10.978;2022-10-17T11:01:44;78.07;;;44.92;;
23384;SDS011;11865;45.394;10.978;2022-10-17T11:07:34;73.70;;;39.53;;
23384;SDS011;11865;45.394;10.978;2022-10-17T11:10:17;70.82;;;40.33;;
23384;SDS011;11865;45.394;10.978;2022-10-17T11:15:32;72.05;;;42.17;;
23384;SDS011;11865;45.394;10.978;2022-10-17T11:18:25;77.18;;;42.00;;
23384;SDS011;11865;45.394;10.978;2022-10-17T11:26:59;78.53;;;42.72;;
23384;SDS011;11865;45.394;10.978;2022-10-17T11:29:30;82.75;;;44.15;;
23384;SDS011;11865;45.394;10.978;2022-10-17T11:32:11;78.90;;;44.10;;
23384;SDS011;11865;45.394;10.978;2022-10-17T11:34:41;73.82;;;42.10;;
23384;SDS011;11865;45.394;10.978;2022-10-17T11:37:14;68.90;;;40.13;;
23384;SDS011;11865;45.394;10.978;2022-10-17T11:40:53;72.10;;;40.78;;
23384;SDS011;11865;45.394;10.978;2022-10-17T11:45:28;71.20;;;39.97;;
23384;SDS011;11865;45.394;10.978;2022-10-17T11:48:02;67.78;;;39.75;;
23384;SDS011;11865;45.394;10.978;2022-10-17T11:50:34;66.85;;;40.15;;
23384;SDS011;11865;45.394;10.978;2022-10-17T11:53:25;73.35;;;40.55;;
23384;SDS011;11865;45.394;10.978;2022-10-17T11:56:07;76.25;;;43.83;;
23384;SDS011;11865;45.394;10.978;2022-10-17T11:58:42;72.38;;;41.45;;
23384;SDS011;11865;45.394;10.978;2022-10-17T12:04:53;81.28;;;42.33;;
23384;SDS011;11865;45.394;10.978;2022-10-17T12:10:27;74.78;;;42.33;;
23384;SDS011;11865;45.394;10.978;2022-10-17T12:15:57;79.78;;;42.22;;
23384;SDS011;11865;45.394;10.978;2022-10-17T12:18:43;79.88;;;43.92;;
23384;SDS011;11865;45.394;10.978;2022-10-17T12:21:12;82.15;;;43.00;;
23384;SDS011;11865;45.394;10.978;2022-10-17T12:23:39;81.07;;;43.45;;
23384;SDS011;11865;45.394;10.978;2022-10-17T12:26:24;81.18;;;43.13;;
23384;SDS011;11865;45.394;10.978;2022-10-17T12:28:52;82.53;;;43.45;;
23384;SDS011;11865;45.394;10.978;2022-10-17T12:31:24;75.82;;;40.58;;
23384;SDS011;11865;45.394;10.978;2022-10-17T12:34:00;74.72;;;42.35;;
23384;SDS011;11865;45.394;10.978;2022-10-17T12:44:47;81.50;;;42.53;;
23384;SDS011;11865;45.394;10.978;2022-10-17T12:49:48;73.85;;;40.28;;
23384;SDS011;11865;45.394;10.978;2022-10-17T12:57:46;71.95;;;40.33;;
23384;SDS011;11865;45.394;10.978;2022-10-17T13:00:17;73.60;;;40.00;;
23384;SDS011;11865;45.394;10.978;2022-10-17T13:02:53;78.80;;;40.72;;
23384;SDS011;11865;45.394;10.978;2022-10-17T13:05:27;72.25;;;39.58;;
23384;SDS011;11865;45.394;10.978;2022-10-17T13:07:59;77.05;;;41.70;;
23384;SDS011;11865;45.394;10.978;2022-10-17T13:10:30;72.00;;;40.45;;
23384;SDS011;11865;45.394;10.978;2022-10-17T13:13:05;73.03;;;41.87;;
23384;SDS011;11865;45.394;10.978;2022-10-17T13:15:52;71.35;;;40.03;;
23384;SDS011;11865;45.394;10.978;2022-10-17T13:18:25;76.70;;;42.50;;
23384;SDS011;11865;45.394;10.978;2022-10-17T13:23:30;72.72;;;42.38;;
23384;SDS011;11865;45.394;10.978;2022-10-17T13:26:19;76.35;;;42.33;;
23384;SDS011;11865;45.394;10.978;2022-10-17T13:29:05;76.75;;;42.28;;
23384;SDS011;11865;45.394;10.978;2022-10-17T13:31:38;75.43;;;40.80;;
23384;SDS011;11865;45.394;10.978;2022-10-17T13:34:17;74.85;;;40.55;;
23384;SDS011;11865;45.394;10.978;2022-10-17T13:36:47;70.95;;;39.58;;
23384;SDS011;11865;45.394;10.978;2022-10-17T13:39:18;76.03;;;40.85;;
23384;SDS011;11865;45.394;10.978;2022-10-17T13:42:20;70.72;;;38.20;;
23384;SDS011;11865;45.394;10.978;2022-10-17T13:44:51;75.70;;;40.80;;
23384;SDS011;11865;45.394;10.978;2022-10-17T13:47:22;73.35;;;40.83;;
23384;SDS011;11865;45.394;10.978;2022-10-17T13:49:52;73.43;;;41.13;;
23384;SDS011;11865;45.394;10.978;2022-10-17T13:52:24;71.22;;;40.83;;
23384;SDS011;11865;45.394;10.978;2022-10-17T13:54:54;75.43;;;39.80;;
23384;SDS011;11865;45.394;10.978;2022-10-17T13:57:32;73.60;;;40.65;;
23384;SDS011;11865;45.394;10.978;2022-10-17T14:00:01;66.90;;;39.40;;
23384;SDS011;11865;45.394;10.978;2022-10-17T14:02:40;76.82;;;40.05;;
23384;SDS011;11865;45.394;10.978;2022-10-17T14:05:12;71.63;;;40.30;;
23384;SDS011;11865;45.394;10.978;2022-10-17T14:07:54;71.97;;;40.95;;
23384;SDS011;11865;45.394;10.978;2022-10-17T14:10:38;74.32;;;41.88;;
23384;SDS011;11865;45.394;10.978;2022-10-17T14:13:07;75.95;;;41.53;;
23384;SDS011;11865;45.394;10.978;2022-10-17T14:15:52;71.47;;;40.45;;
23384;SDS011;11865;45.394;10.978;2022-10-17T14:18:28;76.90;;;41.88;;
23384;SDS011;11865;45.394;10.978;2022-10-17T14:21:03;69.28;;;39.03;;
23384;SDS011;11865;45.394;10.978;2022-10-17T14:23:52;76.18;;;41.45;;
23384;SDS011;11865;45.394;10.978;2022-10-17T14:26:51;73.05;;;41.55;;
23384;SDS011;11865;45.394;10.978;2022-10-17T14:29:22;69.45;;;40.25;;
23384;SDS011;11865;45.394;10.978;2022-10-17T14:31:58;75.35;;;40.45;;
23384;SDS011;11865;45.394;10.978;2022-10-17T14:34:32;70.18;;;40.90;;
23384;SDS011;11865;45.394;10.978;2022-10-17T14:37:07;77.55;;;41.53;;
23384;SDS011;11865;45.394;10.978;2022-10-17T14:39:36;67.50;;;39.85;;
23384;SDS011;11865;45.394;10.978;2022-10-17T14:42:04;73.07;;;40.88;;
23384;SDS011;11865;45.394;10.978;2022-10-17T14:44:32;69.35;;;41.15;;
23384;SDS011;11865;45.394;10.978;2022-10-17T14:47:02;76.63;;;40.75;;
23384;SDS011;11865;45.394;10.978;2022-10-17T14:50:06;76.63;;;40.00;;
23384;SDS011;11865;45.394;10.978;2022-10-17T14:55:27;67.10;;;39.10;;
23384;SDS011;11865;45.394;10.978;2022-10-17T14:57:57;70.82;;;41.05;;
23384;SDS011;11865;45.394;10.978;2022-10-17T15:00:24;68.72;;;39.50;;
23384;SDS011;11865;45.394;10.978;2022-10-17T15:02:53;73.35;;;38.83;;
23384;SDS011;11865;45.394;10.978;2022-10-17T15:05:21;68.40;;;39.13;;
23384;SDS011;11865;45.394;10.978;2022-10-17T15:07:49;71.63;;;39.15;;
23384;SDS011;11865;45.394;10.978;2022-10-17T15:10:35;71.22;;;37.80;;
23384;SDS011;11865;45.394;10.978;2022-10-17T15:13:03;67.60;;;38.08;;
23384;SDS011;11865;45.394;10.978;2022-10-17T15:15:50;66.82;;;38.55;;
23384;SDS011;11865;45.394;10.978;2022-10-17T15:18:18;72.72;;;39.20;;
23384;SDS011;11865;45.394;10.978;2022-10-17T15:20:45;69.18;;;39.78;;
23384;SDS011;11865;45.394;10.978;2022-10-17T15:23:21;67.25;;;36.30;;
23384;SDS011;11865;45.394;10.978;2022-10-17T15:25:48;70.28;;;39.05;;
23384;SDS011;11865;45.394;10.978;2022-10-17T15:28:16;70.00;;;38.90;;
23384;SDS011;11865;45.394;10.978;2022-10-17T15:30:44;67.63;;;39.55;;
23384;SDS011;11865;45.394;10.978;2022-10-17T15:33:11;70.35;;;37.92;;
23384;SDS011;11865;45.394;10.978;2022-10-17T15:35:38;63.00;;;36.65;;
23384;SDS011;11865;45.394;10.978;2022-10-17T15:38:10;57.28;;;35.28;;
23384;SDS011;11865;45.394;10.978;2022-10-17T15:40:42;62.85;;;36.63;;
23384;SDS011;11865;45.394;10.978;2022-10-17T15:43:11;63.42;;;37.22;;
23384;SDS011;11865;45.394;10.978;2022-10-17T15:45:45;63.05;;;35.38;;
23384;SDS011;11865;45.394;10.978;2022-10-17T15:48:17;60.72;;;35.50;;
23384;SDS011;11865;45.394;10.978;2022-10-17T15:50:55;60.30;;;34.85;;
23384;SDS011;11865;45.394;10.978;2022-10-17T15:53:23;55.35;;;32.33;;
23384;SDS011;11865;45.394;10.978;2022-10-17T15:55:50;53.00;;;31.38;;
23384;SDS011;11865;45.394;10.978;2022-10-17T15:58:18;58.20;;;30.13;;
23384;SDS011;11865;45.394;10.978;2022-10-17T16:00:45;55.42;;;30.85;;
23384;SDS011;11865;45.394;10.978;2022-10-17T16:03:14;53.92;;;30.75;;
23384;SDS011;11865;45.394;10.978;2022-10-17T16:05:41;56.17;;;31.58;;
23384;SDS011;11865;45.394;10.978;2022-10-17T16:08:08;51.85;;;30.80;;
23384;SDS011;11865;45.394;10.978;2022-10-17T16:10:36;49.25;;;30.92;;
23384;SDS011;11865;45.394;10.978;2022-10-17T16:13:08;51.70;;;30.70;;
23384;SDS011;11865;45.394;10.978;2022-10-17T16:15:49;55.45;;;31.05;;
23384;SDS011;11865;45.394;10.978;2022-10-17T16:18:17;54.97;;;32.08;;
23384;SDS011;11865;45.394;10.978;2022-10-17T16:20:45;51.80;;;30.63;;
23384;SDS011;11865;45.394;10.978;2022-10-17T16:23:13;55.03;;;30.27;;
23384;SDS011;11865;45.394;10.978;2022-10-17T16:25:41;50.33;;;30.75;;
23384;SDS011;11865;45.394;10.978;2022-10-17T16:28:08;51.05;;;30.05;;
23384;SDS011;11865;45.394;10.978;2022-10-17T16:30:39;54.85;;;31.05;;
23384;SDS011;11865;45.394;10.978;2022-10-17T16:33:12;55.70;;;31.33;;
23384;SDS011;11865;45.394;10.978;2022-10-17T16:35:39;53.42;;;32.03;;
23384;SDS011;11865;45.394;10.978;2022-10-17T16:38:07;56.92;;;32.35;;
23384;SDS011;11865;45.394;10.978;2022-10-17T16:40:35;51.53;;;28.77;;
23384;SDS011;11865;45.394;10.978;2022-10-17T16:43:05;54.03;;;31.33;;
23384;SDS011;11865;45.394;10.978;2022-10-17T16:45:33;51.28;;;30.52;;
23384;SDS011;11865;45.394;10.978;2022-10-17T16:48:01;63.72;;;34.30;;
23384;SDS011;11865;45.394;10.978;2022-10-17T16:50:29;59.35;;;32.60;;
23384;SDS011;11865;45.394;10.978;2022-10-17T16:53:01;56.95;;;31.20;;